sensor_id;sensor_type;location;lat;lon;timestamp;temperature;humidity
8792;DHT22;4432;50.890;4.744;2023-06-10T00:00:43;20.60;99.90
8792;DHT22;4432;50.890;4.744;2023-06-10T00:03:10;20.60;99.90
8792;DHT22;4432;50.890;4.744;2023-06-10T00:05:35;20.50;99.90
8792;DHT22;4432;50.890;4.744;2023-06-10T00:08:05;20.50;99.90
8792;DHT22;4432;50.890;4.744;2023-06-10T00:10:38;20.50;99.90
8792;DHT22;4432;50.890;4.744;2023-06-10T00:13:04;20.50;99.90
8792;DHT22;4432;50.890;4.744;2023-06-10T00:15:31;20.50;99.90
8792;DHT22;4432;50.890;4.744;2023-06-10T00:17:57;20.50;99.90
8792;DHT22;4432;50.890;4.744;2023-06-10T00:20:23;20.40;99.90
8792;DHT22;4432;50.890;4.744;2023-06-10T00:22:52;20.40;99.90
8792;DHT22;4432;50.890;4.744;2023-06-10T00:25:18;20.40;99.90
8792;DHT22;4432;50.890;4.744;2023-06-10T00:27:44;20.40;99.90
8792;DHT22;4432;50.890;4.744;2023-06-10T00:30:10;20.40;99.90
8792;DHT22;4432;50.890;4.744;2023-06-10T00:32:37;20.40;99.90
8792;DHT22;4432;50.890;4.744;2023-06-10T00:35:03;20.30;99.90
8792;DHT22;4432;50.890;4.744;2023-06-10T00:37:29;20.20;99.90
8792;DHT22;4432;50.890;4.744;2023-06-10T00:39:56;20.10;99.90
8792;DHT22;4432;50.890;4.744;2023-06-10T00:42:21;20.10;99.90
8792;DHT22;4432;50.890;4.744;2023-06-10T00:44:54;20.00;99.90
8792;DHT22;4432;50.890;4.744;2023-06-10T00:47:20;20.10;99.90
8792;DHT22;4432;50.890;4.744;2023-06-10T00:49:47;20.00;99.90
8792;DHT22;4432;50.890;4.744;2023-06-10T00:52:14;20.00;99.90
8792;DHT22;4432;50.890;4.744;2023-06-10T00:54:41;19.90;99.90
8792;DHT22;4432;50.890;4.744;2023-06-10T00:57:07;19.90;99.90
8792;DHT22;4432;50.890;4.744;2023-06-10T00:59:33;19.90;99.90
8792;DHT22;4432;50.890;4.744;2023-06-10T01:01:59;19.90;99.90
8792;DHT22;4432;50.890;4.744;2023-06-10T01:04:26;19.80;99.90
8792;DHT22;4432;50.890;4.744;2023-06-10T01:07:13;19.70;99.90
8792;DHT22;4432;50.890;4.744;2023-06-10T01:09:53;19.70;99.90
8792;DHT22;4432;50.890;4.744;2023-06-10T01:13:12;19.60;99.90
8792;DHT22;4432;50.890;4.744;2023-06-10T01:15:19;19.60;99.90
8792;DHT22;4432;50.890;4.744;2023-06-10T01:18:01;19.50;99.90
8792;DHT22;4432;50.890;4.744;2023-06-10T01:20:31;19.50;99.90
8792;DHT22;4432;50.890;4.744;2023-06-10T01:22:59;19.50;99.90
8792;DHT22;4432;50.890;4.744;2023-06-10T01:25:27;19.50;99.90
8792;DHT22;4432;50.890;4.744;2023-06-10T01:28:20;19.50;99.90
8792;DHT22;4432;50.890;4.744;2023-06-10T01:33:29;19.50;99.90
8792;DHT22;4432;50.890;4.744;2023-06-10T01:35:57;19.50;99.90
8792;DHT22;4432;50.890;4.744;2023-06-10T01:38:27;19.40;99.90
8792;DHT22;4432;50.890;4.744;2023-06-10T01:40:55;19.40;99.90
8792;DHT22;4432;50.890;4.744;2023-06-10T01:43:22;19.40;99.90
8792;DHT22;4432;50.890;4.744;2023-06-10T01:45:48;19.40;99.90
8792;DHT22;4432;50.890;4.744;2023-06-10T01:48:14;19.30;99.90
8792;DHT22;4432;50.890;4.744;2023-06-10T01:50:40;19.30;99.90
8792;DHT22;4432;50.890;4.744;2023-06-10T01:53:05;19.30;99.90
8792;DHT22;4432;50.890;4.744;2023-06-10T01:55:31;19.20;99.90
8792;DHT22;4432;50.890;4.744;2023-06-10T01:57:57;19.20;99.90
8792;DHT22;4432;50.890;4.744;2023-06-10T02:00:23;19.20;99.90
8792;DHT22;4432;50.890;4.744;2023-06-10T02:02:49;19.10;99.90
8792;DHT22;4432;50.890;4.744;2023-06-10T02:05:15;19.00;99.90
8792;DHT22;4432;50.890;4.744;2023-06-10T02:07:40;19.00;99.90
8792;DHT22;4432;50.890;4.744;2023-06-10T02:10:07;18.90;99.90
8792;DHT22;4432;50.890;4.744;2023-06-10T02:12:33;18.80;99.90
8792;DHT22;4432;50.890;4.744;2023-06-10T02:14:58;18.80;99.90
8792;DHT22;4432;50.890;4.744;2023-06-10T02:17:24;18.90;99.90
8792;DHT22;4432;50.890;4.744;2023-06-10T02:19:50;18.80;99.90
8792;DHT22;4432;50.890;4.744;2023-06-10T02:22:22;18.80;99.90
8792;DHT22;4432;50.890;4.744;2023-06-10T02:24:49;18.80;99.90
8792;DHT22;4432;50.890;4.744;2023-06-10T02:27:15;18.70;99.90
8792;DHT22;4432;50.890;4.744;2023-06-10T02:29:42;18.70;99.90
8792;DHT22;4432;50.890;4.744;2023-06-10T02:32:09;18.70;99.90
8792;DHT22;4432;50.890;4.744;2023-06-10T02:34:35;18.70;99.90
8792;DHT22;4432;50.890;4.744;2023-06-10T02:37:02;18.70;99.90
8792;DHT22;4432;50.890;4.744;2023-06-10T02:39:28;18.70;99.90
8792;DHT22;4432;50.890;4.744;2023-06-10T02:41:54;18.60;99.90
8792;DHT22;4432;50.890;4.744;2023-06-10T02:44:20;18.60;99.90
8792;DHT22;4432;50.890;4.744;2023-06-10T02:46:46;18.50;99.90
8792;DHT22;4432;50.890;4.744;2023-06-10T02:49:12;18.50;99.90
8792;DHT22;4432;50.890;4.744;2023-06-10T02:51:38;18.40;99.90
8792;DHT22;4432;50.890;4.744;2023-06-10T02:54:04;18.40;99.90
8792;DHT22;4432;50.890;4.744;2023-06-10T02:56:30;18.30;99.90
8792;DHT22;4432;50.890;4.744;2023-06-10T02:58:57;18.30;99.90
8792;DHT22;4432;50.890;4.744;2023-06-10T03:01:23;18.30;99.90
8792;DHT22;4432;50.890;4.744;2023-06-10T03:03:49;18.30;99.90
8792;DHT22;4432;50.890;4.744;2023-06-10T03:06:16;18.30;99.90
8792;DHT22;4432;50.890;4.744;2023-06-10T03:08:42;18.30;99.90
8792;DHT22;4432;50.890;4.744;2023-06-10T03:11:08;18.20;99.90
8792;DHT22;4432;50.890;4.744;2023-06-10T03:13:34;18.20;99.90
8792;DHT22;4432;50.890;4.744;2023-06-10T03:16:00;18.20;99.90
8792;DHT22;4432;50.890;4.744;2023-06-10T03:18:27;18.20;99.90
8792;DHT22;4432;50.890;4.744;2023-06-10T03:20:53;18.10;99.90
8792;DHT22;4432;50.890;4.744;2023-06-10T03:23:19;18.20;99.90
8792;DHT22;4432;50.890;4.744;2023-06-10T03:25:45;18.20;99.90
8792;DHT22;4432;50.890;4.744;2023-06-10T03:28:11;18.10;99.90
8792;DHT22;4432;50.890;4.744;2023-06-10T03:30:36;18.00;99.90
8792;DHT22;4432;50.890;4.744;2023-06-10T03:33:02;18.00;99.90
8792;DHT22;4432;50.890;4.744;2023-06-10T03:35:29;18.00;99.90
8792;DHT22;4432;50.890;4.744;2023-06-10T03:37:55;18.00;99.90
8792;DHT22;4432;50.890;4.744;2023-06-10T03:40:21;17.90;99.90
8792;DHT22;4432;50.890;4.744;2023-06-10T03:42:47;17.90;99.90
8792;DHT22;4432;50.890;4.744;2023-06-10T03:45:12;17.90;99.90
8792;DHT22;4432;50.890;4.744;2023-06-10T03:47:38;18.00;99.90
8792;DHT22;4432;50.890;4.744;2023-06-10T03:50:07;17.90;99.90
8792;DHT22;4432;50.890;4.744;2023-06-10T03:52:34;18.00;99.90
8792;DHT22;4432;50.890;4.744;2023-06-10T03:55:00;18.00;99.90
8792;DHT22;4432;50.890;4.744;2023-06-10T03:57:26;18.00;99.90
8792;DHT22;4432;50.890;4.744;2023-06-10T03:59:52;18.00;99.90
8792;DHT22;4432;50.890;4.744;2023-06-10T04:02:18;18.00;99.90
8792;DHT22;4432;50.890;4.744;2023-06-10T04:04:44;18.00;99.90
8792;DHT22;4432;50.890;4.744;2023-06-10T04:07:10;18.10;99.90
8792;DHT22;4432;50.890;4.744;2023-06-10T04:09:36;18.10;99.90
8792;DHT22;4432;50.890;4.744;2023-06-10T04:12:03;18.10;99.90
8792;DHT22;4432;50.890;4.744;2023-06-10T04:14:31;18.20;99.90
8792;DHT22;4432;50.890;4.744;2023-06-10T04:16:57;18.20;99.90
8792;DHT22;4432;50.890;4.744;2023-06-10T04:19:23;18.30;99.90
8792;DHT22;4432;50.890;4.744;2023-06-10T04:21:48;18.40;99.90
8792;DHT22;4432;50.890;4.744;2023-06-10T04:24:14;18.30;99.90
8792;DHT22;4432;50.890;4.744;2023-06-10T04:26:40;18.40;99.90
8792;DHT22;4432;50.890;4.744;2023-06-10T04:29:05;18.40;99.90
8792;DHT22;4432;50.890;4.744;2023-06-10T04:31:32;18.40;99.90
8792;DHT22;4432;50.890;4.744;2023-06-10T04:33:57;18.40;99.90
8792;DHT22;4432;50.890;4.744;2023-06-10T04:36:23;18.50;99.90
8792;DHT22;4432;50.890;4.744;2023-06-10T04:38:49;18.60;99.90
8792;DHT22;4432;50.890;4.744;2023-06-10T04:41:17;18.70;99.90
8792;DHT22;4432;50.890;4.744;2023-06-10T04:43:43;18.70;99.90
8792;DHT22;4432;50.890;4.744;2023-06-10T04:46:09;18.80;99.90
8792;DHT22;4432;50.890;4.744;2023-06-10T04:48:35;18.80;99.90
8792;DHT22;4432;50.890;4.744;2023-06-10T04:51:02;18.90;99.90
8792;DHT22;4432;50.890;4.744;2023-06-10T04:53:28;19.00;99.90
8792;DHT22;4432;50.890;4.744;2023-06-10T04:55:54;19.00;99.90
8792;DHT22;4432;50.890;4.744;2023-06-10T04:58:20;19.10;99.90
8792;DHT22;4432;50.890;4.744;2023-06-10T05:00:45;19.20;99.90
8792;DHT22;4432;50.890;4.744;2023-06-10T05:03:11;19.30;99.90
8792;DHT22;4432;50.890;4.744;2023-06-10T05:05:37;19.40;99.90
8792;DHT22;4432;50.890;4.744;2023-06-10T05:08:03;19.50;99.90
8792;DHT22;4432;50.890;4.744;2023-06-10T05:10:28;19.50;99.90
8792;DHT22;4432;50.890;4.744;2023-06-10T05:12:57;19.60;99.90
8792;DHT22;4432;50.890;4.744;2023-06-10T05:15:24;19.50;99.90
8792;DHT22;4432;50.890;4.744;2023-06-10T05:17:49;19.60;99.90
8792;DHT22;4432;50.890;4.744;2023-06-10T05:20:18;19.70;99.90
8792;DHT22;4432;50.890;4.744;2023-06-10T05:22:45;19.80;99.90
8792;DHT22;4432;50.890;4.744;2023-06-10T05:25:11;19.80;99.90
8792;DHT22;4432;50.890;4.744;2023-06-10T05:27:37;19.90;99.90
8792;DHT22;4432;50.890;4.744;2023-06-10T05:30:04;19.90;99.90
8792;DHT22;4432;50.890;4.744;2023-06-10T05:32:31;20.00;99.90
8792;DHT22;4432;50.890;4.744;2023-06-10T05:34:56;20.10;99.90
8792;DHT22;4432;50.890;4.744;2023-06-10T05:37:22;20.20;99.90
8792;DHT22;4432;50.890;4.744;2023-06-10T05:39:48;20.30;99.90
8792;DHT22;4432;50.890;4.744;2023-06-10T05:42:14;20.40;99.90
8792;DHT22;4432;50.890;4.744;2023-06-10T05:44:39;20.50;99.90
8792;DHT22;4432;50.890;4.744;2023-06-10T05:47:06;20.70;99.90
8792;DHT22;4432;50.890;4.744;2023-06-10T05:49:31;20.90;99.90
8792;DHT22;4432;50.890;4.744;2023-06-10T05:51:57;21.00;99.90
8792;DHT22;4432;50.890;4.744;2023-06-10T05:54:25;21.10;99.90
8792;DHT22;4432;50.890;4.744;2023-06-10T05:56:51;21.20;99.90
8792;DHT22;4432;50.890;4.744;2023-06-10T05:59:17;21.30;99.90
8792;DHT22;4432;50.890;4.744;2023-06-10T06:01:42;21.40;99.90
8792;DHT22;4432;50.890;4.744;2023-06-10T06:04:08;21.50;99.90
8792;DHT22;4432;50.890;4.744;2023-06-10T06:06:38;21.60;99.90
8792;DHT22;4432;50.890;4.744;2023-06-10T06:09:04;21.70;99.90
8792;DHT22;4432;50.890;4.744;2023-06-10T06:11:30;21.80;99.90
8792;DHT22;4432;50.890;4.744;2023-06-10T06:13:56;21.80;99.90
8792;DHT22;4432;50.890;4.744;2023-06-10T06:16:21;22.00;99.90
8792;DHT22;4432;50.890;4.744;2023-06-10T06:18:47;22.00;99.90
8792;DHT22;4432;50.890;4.744;2023-06-10T06:21:13;22.00;99.90
8792;DHT22;4432;50.890;4.744;2023-06-10T06:23:39;22.10;99.90
8792;DHT22;4432;50.890;4.744;2023-06-10T06:26:05;22.00;99.90
8792;DHT22;4432;50.890;4.744;2023-06-10T06:28:31;22.10;99.90
8792;DHT22;4432;50.890;4.744;2023-06-10T06:30:57;22.20;99.90
8792;DHT22;4432;50.890;4.744;2023-06-10T06:33:23;22.40;99.90
8792;DHT22;4432;50.890;4.744;2023-06-10T06:35:49;22.40;99.90
8792;DHT22;4432;50.890;4.744;2023-06-10T06:38:14;22.50;99.90
8792;DHT22;4432;50.890;4.744;2023-06-10T06:40:40;22.60;99.90
8792;DHT22;4432;50.890;4.744;2023-06-10T06:43:06;22.60;99.90
8792;DHT22;4432;50.890;4.744;2023-06-10T06:45:32;22.70;99.90
8792;DHT22;4432;50.890;4.744;2023-06-10T06:47:59;22.80;99.90
8792;DHT22;4432;50.890;4.744;2023-06-10T06:50:25;22.80;99.90
8792;DHT22;4432;50.890;4.744;2023-06-10T06:52:51;22.90;99.90
8792;DHT22;4432;50.890;4.744;2023-06-10T06:55:17;23.00;99.90
8792;DHT22;4432;50.890;4.744;2023-06-10T06:57:42;23.00;99.90
8792;DHT22;4432;50.890;4.744;2023-06-10T07:00:09;23.10;99.90
8792;DHT22;4432;50.890;4.744;2023-06-10T07:02:35;23.30;99.90
8792;DHT22;4432;50.890;4.744;2023-06-10T07:05:01;23.40;99.90
8792;DHT22;4432;50.890;4.744;2023-06-10T07:07:27;23.40;99.90
8792;DHT22;4432;50.890;4.744;2023-06-10T07:09:53;23.40;99.90
8792;DHT22;4432;50.890;4.744;2023-06-10T07:12:18;23.60;99.90
8792;DHT22;4432;50.890;4.744;2023-06-10T07:14:44;23.80;99.90
8792;DHT22;4432;50.890;4.744;2023-06-10T07:17:10;23.80;99.90
8792;DHT22;4432;50.890;4.744;2023-06-10T07:19:36;23.90;99.90
8792;DHT22;4432;50.890;4.744;2023-06-10T07:22:02;23.90;99.90
8792;DHT22;4432;50.890;4.744;2023-06-10T07:24:28;24.00;99.90
8792;DHT22;4432;50.890;4.744;2023-06-10T07:26:54;24.10;99.90
8792;DHT22;4432;50.890;4.744;2023-06-10T07:29:20;24.20;99.90
8792;DHT22;4432;50.890;4.744;2023-06-10T07:31:46;24.20;99.90
8792;DHT22;4432;50.890;4.744;2023-06-10T07:34:11;24.30;99.90
8792;DHT22;4432;50.890;4.744;2023-06-10T07:36:37;24.50;99.90
8792;DHT22;4432;50.890;4.744;2023-06-10T07:39:04;24.70;99.90
8792;DHT22;4432;50.890;4.744;2023-06-10T07:41:30;24.70;99.90
8792;DHT22;4432;50.890;4.744;2023-06-10T07:43:55;24.80;99.90
8792;DHT22;4432;50.890;4.744;2023-06-10T07:46:22;24.90;99.90
8792;DHT22;4432;50.890;4.744;2023-06-10T07:48:49;25.10;99.90
8792;DHT22;4432;50.890;4.744;2023-06-10T07:51:16;25.20;99.90
8792;DHT22;4432;50.890;4.744;2023-06-10T07:53:42;25.30;99.90
8792;DHT22;4432;50.890;4.744;2023-06-10T07:56:08;25.30;99.90
8792;DHT22;4432;50.890;4.744;2023-06-10T07:58:34;25.40;99.90
8792;DHT22;4432;50.890;4.744;2023-06-10T08:01:00;25.40;99.90
8792;DHT22;4432;50.890;4.744;2023-06-10T08:03:25;25.40;99.90
8792;DHT22;4432;50.890;4.744;2023-06-10T08:05:51;25.40;99.90
8792;DHT22;4432;50.890;4.744;2023-06-10T08:08:17;25.60;99.90
8792;DHT22;4432;50.890;4.744;2023-06-10T08:10:43;25.80;99.90
8792;DHT22;4432;50.890;4.744;2023-06-10T08:13:09;25.80;99.90
8792;DHT22;4432;50.890;4.744;2023-06-10T08:15:35;25.80;99.90
8792;DHT22;4432;50.890;4.744;2023-06-10T08:18:01;25.80;99.90
8792;DHT22;4432;50.890;4.744;2023-06-10T08:20:26;26.00;99.10
8792;DHT22;4432;50.890;4.744;2023-06-10T08:22:52;25.90;98.30
8792;DHT22;4432;50.890;4.744;2023-06-10T08:25:18;25.80;99.10
8792;DHT22;4432;50.890;4.744;2023-06-10T08:27:44;26.00;98.10
8792;DHT22;4432;50.890;4.744;2023-06-10T08:30:10;26.20;98.70
8792;DHT22;4432;50.890;4.744;2023-06-10T08:32:36;26.20;98.00
8792;DHT22;4432;50.890;4.744;2023-06-10T08:35:03;26.30;96.50
8792;DHT22;4432;50.890;4.744;2023-06-10T08:37:29;26.50;97.40
8792;DHT22;4432;50.890;4.744;2023-06-10T08:39:55;26.80;96.60
8792;DHT22;4432;50.890;4.744;2023-06-10T08:42:45;26.90;92.50
8792;DHT22;4432;50.890;4.744;2023-06-10T08:45:17;27.00;93.00
8792;DHT22;4432;50.890;4.744;2023-06-10T08:47:46;27.00;93.50
8792;DHT22;4432;50.890;4.744;2023-06-10T08:50:16;27.10;90.70
8792;DHT22;4432;50.890;4.744;2023-06-10T08:52:43;27.10;92.00
8792;DHT22;4432;50.890;4.744;2023-06-10T08:55:27;27.20;90.40
8792;DHT22;4432;50.890;4.744;2023-06-10T08:57:55;27.30;91.70
8792;DHT22;4432;50.890;4.744;2023-06-10T09:00:21;27.50;90.00
8792;DHT22;4432;50.890;4.744;2023-06-10T09:02:47;27.80;85.40
8792;DHT22;4432;50.890;4.744;2023-06-10T09:05:13;27.80;85.20
8792;DHT22;4432;50.890;4.744;2023-06-10T09:07:39;28.00;83.70
8792;DHT22;4432;50.890;4.744;2023-06-10T09:10:05;28.50;82.30
8792;DHT22;4432;50.890;4.744;2023-06-10T09:12:35;29.10;80.70
8792;DHT22;4432;50.890;4.744;2023-06-10T09:15:04;29.50;79.40
8792;DHT22;4432;50.890;4.744;2023-06-10T09:17:31;30.20;72.90
8792;DHT22;4432;50.890;4.744;2023-06-10T09:19:59;30.00;64.40
8792;DHT22;4432;50.890;4.744;2023-06-10T09:22:25;30.40;60.90
8792;DHT22;4432;50.890;4.744;2023-06-10T09:27:31;30.40;55.20
8792;DHT22;4432;50.890;4.744;2023-06-10T09:30:00;31.00;52.30
8792;DHT22;4432;50.890;4.744;2023-06-10T09:32:26;31.40;48.50
8792;DHT22;4432;50.890;4.744;2023-06-10T09:34:52;31.60;47.40
8792;DHT22;4432;50.890;4.744;2023-06-10T09:37:23;31.50;49.40
8792;DHT22;4432;50.890;4.744;2023-06-10T09:40:08;31.50;48.60
8792;DHT22;4432;50.890;4.744;2023-06-10T09:42:36;31.80;40.60
8792;DHT22;4432;50.890;4.744;2023-06-10T09:45:03;32.40;35.60
8792;DHT22;4432;50.890;4.744;2023-06-10T09:47:29;32.20;31.20
8792;DHT22;4432;50.890;4.744;2023-06-10T09:49:55;32.20;33.30
8792;DHT22;4432;50.890;4.744;2023-06-10T09:52:22;31.50;31.20
8792;DHT22;4432;50.890;4.744;2023-06-10T09:54:48;31.90;28.40
8792;DHT22;4432;50.890;4.744;2023-06-10T09:57:16;31.60;30.00
8792;DHT22;4432;50.890;4.744;2023-06-10T09:59:42;31.60;30.10
8792;DHT22;4432;50.890;4.744;2023-06-10T10:02:16;31.70;29.40
8792;DHT22;4432;50.890;4.744;2023-06-10T10:04:44;31.60;29.00
8792;DHT22;4432;50.890;4.744;2023-06-10T10:07:11;31.80;28.80
8792;DHT22;4432;50.890;4.744;2023-06-10T10:09:41;31.50;27.60
8792;DHT22;4432;50.890;4.744;2023-06-10T10:12:12;31.20;26.70
8792;DHT22;4432;50.890;4.744;2023-06-10T10:14:39;31.30;25.80
8792;DHT22;4432;50.890;4.744;2023-06-10T10:17:09;32.00;22.40
8792;DHT22;4432;50.890;4.744;2023-06-10T10:19:40;31.60;24.70
8792;DHT22;4432;50.890;4.744;2023-06-10T10:22:12;31.50;25.90
8792;DHT22;4432;50.890;4.744;2023-06-10T10:24:49;31.90;28.10
8792;DHT22;4432;50.890;4.744;2023-06-10T10:27:33;32.20;22.70
8792;DHT22;4432;50.890;4.744;2023-06-10T10:30:02;31.60;22.20
8792;DHT22;4432;50.890;4.744;2023-06-10T10:32:37;31.30;25.40
8792;DHT22;4432;50.890;4.744;2023-06-10T10:35:16;31.20;24.20
8792;DHT22;4432;50.890;4.744;2023-06-10T10:37:43;31.00;24.00
8792;DHT22;4432;50.890;4.744;2023-06-10T10:40:10;31.10;20.50
8792;DHT22;4432;50.890;4.744;2023-06-10T10:42:37;31.10;20.20
8792;DHT22;4432;50.890;4.744;2023-06-10T10:45:04;31.20;22.70
8792;DHT22;4432;50.890;4.744;2023-06-10T10:47:31;31.30;22.50
8792;DHT22;4432;50.890;4.744;2023-06-10T10:49:58;31.40;24.70
8792;DHT22;4432;50.890;4.744;2023-06-10T10:52:28;31.70;24.80
8792;DHT22;4432;50.890;4.744;2023-06-10T10:55:14;31.70;16.80
8792;DHT22;4432;50.890;4.744;2023-06-10T10:57:40;31.60;18.40
8792;DHT22;4432;50.890;4.744;2023-06-10T11:00:06;31.40;17.60
8792;DHT22;4432;50.890;4.744;2023-06-10T11:02:44;31.70;18.90
8792;DHT22;4432;50.890;4.744;2023-06-10T11:05:16;31.30;19.00
8792;DHT22;4432;50.890;4.744;2023-06-10T11:08:02;31.30;18.80
8792;DHT22;4432;50.890;4.744;2023-06-10T11:10:30;31.40;18.50
8792;DHT22;4432;50.890;4.744;2023-06-10T11:12:57;31.50;19.50
8792;DHT22;4432;50.890;4.744;2023-06-10T11:15:25;31.70;18.70
8792;DHT22;4432;50.890;4.744;2023-06-10T11:26:17;31.30;15.40
8792;DHT22;4432;50.890;4.744;2023-06-10T11:34:21;31.00;15.10
8792;DHT22;4432;50.890;4.744;2023-06-10T11:36:49;31.10;12.30
8792;DHT22;4432;50.890;4.744;2023-06-10T11:39:15;31.10;13.10
8792;DHT22;4432;50.890;4.744;2023-06-10T11:41:40;31.10;13.30
8792;DHT22;4432;50.890;4.744;2023-06-10T11:44:11;31.40;13.20
8792;DHT22;4432;50.890;4.744;2023-06-10T11:46:38;31.40;12.00
8792;DHT22;4432;50.890;4.744;2023-06-10T11:49:05;31.40;11.40
8792;DHT22;4432;50.890;4.744;2023-06-10T11:51:38;30.90;11.40
8792;DHT22;4432;50.890;4.744;2023-06-10T11:54:07;30.60;12.40
8792;DHT22;4432;50.890;4.744;2023-06-10T11:56:33;30.70;11.70
8792;DHT22;4432;50.890;4.744;2023-06-10T11:59:00;30.90;13.50
8792;DHT22;4432;50.890;4.744;2023-06-10T12:01:35;31.10;12.50
8792;DHT22;4432;50.890;4.744;2023-06-10T12:04:15;31.00;10.60
8792;DHT22;4432;50.890;4.744;2023-06-10T12:06:41;31.30;11.80
8792;DHT22;4432;50.890;4.744;2023-06-10T12:09:23;31.40;8.90
8792;DHT22;4432;50.890;4.744;2023-06-10T12:11:51;31.70;8.90
8792;DHT22;4432;50.890;4.744;2023-06-10T12:14:50;31.80;8.40
8792;DHT22;4432;50.890;4.744;2023-06-10T12:17:17;31.90;9.20
8792;DHT22;4432;50.890;4.744;2023-06-10T12:19:43;31.90;7.90
8792;DHT22;4432;50.890;4.744;2023-06-10T12:22:09;31.90;7.20
8792;DHT22;4432;50.890;4.744;2023-06-10T12:24:44;31.80;5.20
8792;DHT22;4432;50.890;4.744;2023-06-10T12:27:13;31.90;4.90
8792;DHT22;4432;50.890;4.744;2023-06-10T12:29:39;31.80;6.80
8792;DHT22;4432;50.890;4.744;2023-06-10T12:32:16;31.50;6.10
8792;DHT22;4432;50.890;4.744;2023-06-10T12:34:42;31.40;6.40
8792;DHT22;4432;50.890;4.744;2023-06-10T12:37:11;31.70;6.60
8792;DHT22;4432;50.890;4.744;2023-06-10T12:39:41;31.50;6.20
8792;DHT22;4432;50.890;4.744;2023-06-10T12:42:12;31.60;4.30
8792;DHT22;4432;50.890;4.744;2023-06-10T12:44:39;31.60;6.00
8792;DHT22;4432;50.890;4.744;2023-06-10T12:47:10;31.70;4.30
8792;DHT22;4432;50.890;4.744;2023-06-10T12:49:38;31.90;5.90
8792;DHT22;4432;50.890;4.744;2023-06-10T12:52:05;32.00;6.90
8792;DHT22;4432;50.890;4.744;2023-06-10T12:54:31;31.90;6.20
8792;DHT22;4432;50.890;4.744;2023-06-10T12:56:57;31.70;5.20
8792;DHT22;4432;50.890;4.744;2023-06-10T12:59:23;31.70;5.10
8792;DHT22;4432;50.890;4.744;2023-06-10T13:01:53;31.60;2.80
8792;DHT22;4432;50.890;4.744;2023-06-10T13:04:20;31.40;4.70
8792;DHT22;4432;50.890;4.744;2023-06-10T13:06:47;31.60;1.00
8792;DHT22;4432;50.890;4.744;2023-06-10T13:09:14;31.60;1.40
8792;DHT22;4432;50.890;4.744;2023-06-10T13:11:41;31.80;1.00
8792;DHT22;4432;50.890;4.744;2023-06-10T13:14:08;31.70;99.70
8792;DHT22;4432;50.890;4.744;2023-06-10T13:16:35;31.80;99.90
8792;DHT22;4432;50.890;4.744;2023-06-10T13:19:04;31.90;99.90
8792;DHT22;4432;50.890;4.744;2023-06-10T13:21:32;32.00;99.90
8792;DHT22;4432;50.890;4.744;2023-06-10T13:23:58;31.70;98.60
8792;DHT22;4432;50.890;4.744;2023-06-10T13:26:24;31.60;97.90
8792;DHT22;4432;50.890;4.744;2023-06-10T13:28:50;31.70;98.20
8792;DHT22;4432;50.890;4.744;2023-06-10T13:31:16;31.70;99.90
8792;DHT22;4432;50.890;4.744;2023-06-10T13:33:42;32.00;99.80
8792;DHT22;4432;50.890;4.744;2023-06-10T13:36:09;32.20;99.90
8792;DHT22;4432;50.890;4.744;2023-06-10T13:38:35;31.80;98.70
8792;DHT22;4432;50.890;4.744;2023-06-10T13:41:01;32.00;99.20
8792;DHT22;4432;50.890;4.744;2023-06-10T13:43:27;32.00;98.40
8792;DHT22;4432;50.890;4.744;2023-06-10T13:45:53;32.00;96.00
8792;DHT22;4432;50.890;4.744;2023-06-10T13:48:18;31.90;95.50
8792;DHT22;4432;50.890;4.744;2023-06-10T13:50:45;31.90;96.50
8792;DHT22;4432;50.890;4.744;2023-06-10T13:53:12;31.90;95.70
8792;DHT22;4432;50.890;4.744;2023-06-10T13:55:37;31.80;94.50
8792;DHT22;4432;50.890;4.744;2023-06-10T13:58:03;31.90;96.10
8792;DHT22;4432;50.890;4.744;2023-06-10T14:00:29;31.90;96.50
8792;DHT22;4432;50.890;4.744;2023-06-10T14:02:55;31.90;97.50
8792;DHT22;4432;50.890;4.744;2023-06-10T14:05:20;32.10;95.20
8792;DHT22;4432;50.890;4.744;2023-06-10T14:07:46;32.00;96.00
8792;DHT22;4432;50.890;4.744;2023-06-10T14:10:12;31.80;94.80
8792;DHT22;4432;50.890;4.744;2023-06-10T14:12:38;32.00;95.10
8792;DHT22;4432;50.890;4.744;2023-06-10T14:15:05;32.00;95.40
8792;DHT22;4432;50.890;4.744;2023-06-10T14:17:30;32.00;96.40
8792;DHT22;4432;50.890;4.744;2023-06-10T14:19:56;32.20;94.00
8792;DHT22;4432;50.890;4.744;2023-06-10T14:22:22;31.90;93.50
8792;DHT22;4432;50.890;4.744;2023-06-10T14:24:48;31.90;93.60
8792;DHT22;4432;50.890;4.744;2023-06-10T14:27:13;31.80;94.20
8792;DHT22;4432;50.890;4.744;2023-06-10T14:29:39;31.90;92.50
8792;DHT22;4432;50.890;4.744;2023-06-10T14:32:06;31.90;90.80
8792;DHT22;4432;50.890;4.744;2023-06-10T14:34:32;31.80;93.30
8792;DHT22;4432;50.890;4.744;2023-06-10T14:37:02;31.90;92.60
8792;DHT22;4432;50.890;4.744;2023-06-10T14:39:29;31.90;92.30
8792;DHT22;4432;50.890;4.744;2023-06-10T14:41:55;31.80;91.10
8792;DHT22;4432;50.890;4.744;2023-06-10T14:44:21;31.80;88.30
8792;DHT22;4432;50.890;4.744;2023-06-10T14:46:47;31.60;91.10
8792;DHT22;4432;50.890;4.744;2023-06-10T14:49:13;31.60;91.00
8792;DHT22;4432;50.890;4.744;2023-06-10T14:51:38;31.40;91.70
8792;DHT22;4432;50.890;4.744;2023-06-10T14:54:05;31.40;92.60
8792;DHT22;4432;50.890;4.744;2023-06-10T14:56:30;31.40;92.00
8792;DHT22;4432;50.890;4.744;2023-06-10T14:58:56;31.50;92.20
8792;DHT22;4432;50.890;4.744;2023-06-10T15:01:22;31.50;92.20
8792;DHT22;4432;50.890;4.744;2023-06-10T15:03:48;31.60;92.70
8792;DHT22;4432;50.890;4.744;2023-06-10T15:06:13;31.60;90.80
8792;DHT22;4432;50.890;4.744;2023-06-10T15:08:42;31.60;91.90
8792;DHT22;4432;50.890;4.744;2023-06-10T15:11:09;31.60;91.90
8792;DHT22;4432;50.890;4.744;2023-06-10T15:13:34;31.50;91.10
8792;DHT22;4432;50.890;4.744;2023-06-10T15:16:00;31.60;92.90
8792;DHT22;4432;50.890;4.744;2023-06-10T15:18:26;31.40;99.90
8792;DHT22;4432;50.890;4.744;2023-06-10T15:20:52;31.20;91.00
8792;DHT22;4432;50.890;4.744;2023-06-10T15:23:17;31.00;90.60
8792;DHT22;4432;50.890;4.744;2023-06-10T15:25:43;31.00;90.30
8792;DHT22;4432;50.890;4.744;2023-06-10T15:28:09;31.10;90.50
8792;DHT22;4432;50.890;4.744;2023-06-10T15:30:35;31.20;88.80
8792;DHT22;4432;50.890;4.744;2023-06-10T15:33:02;31.20;90.40
8792;DHT22;4432;50.890;4.744;2023-06-10T15:35:28;31.30;87.60
8792;DHT22;4432;50.890;4.744;2023-06-10T15:37:54;31.10;91.30
8792;DHT22;4432;50.890;4.744;2023-06-10T15:40:20;31.10;89.10
8792;DHT22;4432;50.890;4.744;2023-06-10T15:42:46;31.10;91.10
8792;DHT22;4432;50.890;4.744;2023-06-10T15:45:12;31.20;90.70
8792;DHT22;4432;50.890;4.744;2023-06-10T15:47:37;31.20;91.90
8792;DHT22;4432;50.890;4.744;2023-06-10T15:50:03;31.20;91.60
8792;DHT22;4432;50.890;4.744;2023-06-10T15:52:29;31.10;91.10
8792;DHT22;4432;50.890;4.744;2023-06-10T15:54:56;31.10;90.00
8792;DHT22;4432;50.890;4.744;2023-06-10T15:57:22;31.10;91.50
8792;DHT22;4432;50.890;4.744;2023-06-10T15:59:48;31.20;90.90
8792;DHT22;4432;50.890;4.744;2023-06-10T16:02:14;31.20;90.10
8792;DHT22;4432;50.890;4.744;2023-06-10T16:04:39;31.10;90.00
8792;DHT22;4432;50.890;4.744;2023-06-10T16:07:05;31.00;89.20
8792;DHT22;4432;50.890;4.744;2023-06-10T16:09:31;31.00;88.90
8792;DHT22;4432;50.890;4.744;2023-06-10T16:11:59;31.00;89.80
8792;DHT22;4432;50.890;4.744;2023-06-10T16:14:25;31.00;88.80
8792;DHT22;4432;50.890;4.744;2023-06-10T16:16:51;31.00;83.40
8792;DHT22;4432;50.890;4.744;2023-06-10T16:19:16;30.90;85.90
8792;DHT22;4432;50.890;4.744;2023-06-10T16:21:42;30.90;83.00